createdAt,value
2019-04-25T00:01:42.518Z,29.40
2019-04-25T00:04:14.738Z,29.40
2019-04-25T00:06:47.881Z,29.40
2019-04-25T00:09:22.770Z,29.40
2019-04-25T00:11:55.554Z,29.40
2019-04-25T00:14:31.358Z,29.30
2019-04-25T00:17:04.600Z,29.30
2019-04-25T00:19:58.398Z,29.30
2019-04-25T00:22:35.672Z,29.30
2019-04-25T00:25:29.479Z,29.30
2019-04-25T00:28:01.831Z,29.30
2019-04-25T00:30:35.748Z,29.40
2019-04-25T00:33:08.487Z,29.30
2019-04-25T00:35:44.486Z,29.40
2019-04-25T00:38:16.689Z,29.40
2019-04-25T00:40:52.030Z,29.40
2019-04-25T00:43:28.046Z,29.30
2019-04-25T00:46:05.496Z,29.30
2019-04-25T00:48:39.041Z,29.20
2019-04-25T00:51:13.163Z,29.30
2019-04-25T00:53:46.113Z,29.40
2019-04-25T00:56:19.602Z,29.40
2019-04-25T00:59:06.926Z,29.50
2019-04-25T01:01:46.428Z,29.50
2019-04-25T01:04:21.812Z,29.40
2019-04-25T01:06:55.028Z,29.60
2019-04-25T01:09:28.839Z,29.70
2019-04-25T01:12:04.111Z,29.80
2019-04-25T01:14:38.089Z,29.90
2019-04-25T01:17:11.672Z,30.00
2019-04-25T01:19:47.869Z,30.10
2019-04-25T01:22:21.162Z,30.20
2019-04-25T01:24:54.994Z,30.30
2019-04-25T01:27:29.286Z,30.30
2019-04-25T01:30:04.299Z,30.40
2019-04-25T01:32:38.253Z,30.70
2019-04-25T01:35:13.974Z,30.90
2019-04-25T01:37:57.281Z,31.00
2019-04-25T01:40:48.180Z,31.10
2019-04-25T01:43:39.338Z,31.10
2019-04-25T01:46:14.800Z,31.30
2019-04-25T01:48:48.572Z,31.40
2019-04-25T01:51:24.011Z,31.70
2019-04-25T01:53:57.538Z,31.80
2019-04-25T01:56:30.749Z,31.70
2019-04-25T01:59:04.185Z,31.60
2019-04-25T02:01:38.774Z,31.50
2019-04-25T02:04:13.233Z,31.40
2019-04-25T02:06:46.475Z,31.50
2019-04-25T02:09:18.911Z,31.50
2019-04-25T02:11:54.733Z,31.60
2019-04-25T02:14:33.643Z,31.70
2019-04-25T02:17:06.810Z,31.70
2019-04-25T02:19:39.564Z,31.80
2019-04-25T02:22:14.430Z,31.80
2019-04-25T02:24:46.907Z,31.90
2019-04-25T02:27:18.951Z,32.00
2019-04-25T02:29:54.563Z,32.00
2019-04-25T02:32:26.685Z,32.00
2019-04-25T02:35:04.474Z,32.00
2019-04-25T02:37:35.804Z,32.10
2019-04-25T02:40:10.274Z,32.20
2019-04-25T02:42:45.292Z,32.30
2019-04-25T02:45:29.470Z,32.60
2019-04-25T02:48:05.705Z,32.70
2019-04-25T02:50:49.075Z,33.00
2019-04-25T02:53:36.538Z,33.20
2019-04-25T02:56:26.069Z,33.30
2019-04-25T02:58:41.487Z,33.30
2019-04-25T03:01:22.312Z,33.30
2019-04-25T03:03:54.316Z,33.30
2019-04-25T03:06:26.851Z,33.50
2019-04-25T03:09:04.019Z,33.50
2019-04-25T03:11:37.473Z,33.30
2019-04-25T03:14:10.499Z,33.30
2019-04-25T03:16:44.908Z,33.30
2019-04-25T03:19:25.925Z,33.40
2019-04-25T03:22:10.069Z,33.30
2019-04-25T03:24:42.067Z,33.20
2019-04-25T03:27:14.951Z,33.20
2019-04-25T03:29:46.571Z,33.20
2019-04-25T03:32:20.278Z,33.20
2019-04-25T03:34:54.900Z,33.20
2019-04-25T03:37:27.947Z,33.00
2019-04-25T03:40:02.087Z,32.80
2019-04-25T03:42:35.277Z,32.60
2019-04-25T03:45:07.200Z,32.40
2019-04-25T03:47:40.188Z,32.30
2019-04-25T03:50:13.831Z,32.30
2019-04-25T03:52:46.618Z,32.20
2019-04-25T03:55:19.965Z,32.30
2019-04-25T03:57:53.939Z,32.40
2019-04-25T04:00:27.136Z,32.60
2019-04-25T04:03:00.899Z,32.80
2019-04-25T04:05:34.575Z,33.10
2019-04-25T04:08:07.782Z,33.20
2019-04-25T04:10:40.157Z,33.30
2019-04-25T04:13:14.605Z,33.40
2019-04-25T04:15:47.624Z,33.40
2019-04-25T04:18:21.945Z,33.50
2019-04-25T04:20:56.674Z,33.70
2019-04-25T04:23:31.198Z,33.70
2019-04-25T04:26:05.353Z,33.70
2019-04-25T04:28:39.408Z,33.60
2019-04-25T04:31:12.596Z,33.60
2019-04-25T04:33:46.611Z,33.60
2019-04-25T04:36:19.019Z,33.70
2019-04-25T04:38:53.840Z,33.70
2019-04-25T04:41:26.250Z,33.70
2019-04-25T04:43:59.331Z,33.80
2019-04-25T04:46:31.596Z,33.80
2019-04-25T04:49:04.453Z,33.90
2019-04-25T04:51:38.010Z,34.00
2019-04-25T04:54:11.217Z,34.10
2019-04-25T04:56:45.892Z,34.10
2019-04-25T04:59:23.763Z,34.20
2019-04-25T05:02:08.139Z,34.20
2019-04-25T05:05:00.589Z,34.00
2019-04-25T05:07:45.085Z,33.90
2019-04-25T05:10:21.319Z,33.60
2019-04-25T05:12:56.543Z,33.40
2019-04-25T05:15:33.447Z,33.30
2019-04-25T05:18:06.825Z,33.30
2019-04-25T05:20:39.747Z,33.60
2019-04-25T05:23:13.425Z,33.80
2019-04-25T05:25:47.145Z,33.90
2019-04-25T05:28:19.898Z,33.90
2019-04-25T05:30:53.538Z,34.00
2019-04-25T05:33:26.797Z,34.10
2019-04-25T05:36:00.064Z,34.40
2019-04-25T05:38:33.249Z,34.70
2019-04-25T05:41:07.406Z,35.10
2019-04-25T05:43:41.582Z,35.30
2019-04-25T05:46:15.263Z,35.60
2019-04-25T05:48:47.948Z,35.70
2019-04-25T05:51:20.546Z,35.60
2019-04-25T05:53:51.917Z,35.50
2019-04-25T05:56:24.664Z,35.50
2019-04-25T05:58:59.001Z,35.50
2019-04-25T06:01:31.571Z,35.50
2019-04-25T06:04:05.388Z,35.70
2019-04-25T06:06:38.858Z,35.80
2019-04-25T06:09:23.745Z,35.80
2019-04-25T06:12:13.999Z,35.70
2019-04-25T06:14:52.910Z,35.60
2019-04-25T06:17:36.857Z,35.40
2019-04-25T06:20:11.174Z,35.70
2019-04-25T06:22:56.840Z,36.00
2019-04-25T06:25:34.987Z,36.10
2019-04-25T06:28:08.326Z,36.10
2019-04-25T06:30:41.824Z,36.30
2019-04-25T06:33:14.177Z,36.20
2019-04-25T06:35:48.289Z,36.20
2019-04-25T06:38:20.519Z,36.40
2019-04-25T06:40:53.601Z,36.50
2019-04-25T06:43:26.752Z,36.70
2019-04-25T06:46:14.070Z,37.10
2019-04-25T06:49:03.544Z,37.20
2019-04-25T06:51:54.451Z,37.20
2019-04-25T06:54:28.142Z,37.40
2019-04-25T06:57:02.357Z,37.60
2019-04-25T06:59:40.986Z,37.80
2019-04-25T07:02:11.415Z,38.00
2019-04-25T07:04:46.036Z,38.40
2019-04-25T07:07:18.847Z,38.20
2019-04-25T07:09:53.484Z,37.90
2019-04-25T07:12:28.939Z,37.80
2019-04-25T07:15:01.845Z,38.00
2019-04-25T07:17:35.875Z,38.10
2019-04-25T07:20:11.055Z,38.00
2019-04-25T07:22:43.781Z,37.50
2019-04-25T07:25:16.213Z,37.20
2019-04-25T07:28:05.954Z,36.80
2019-04-25T07:30:54.498Z,36.50
2019-04-25T07:33:29.519Z,36.50
2019-04-25T07:36:04.122Z,37.10
2019-04-25T07:38:37.047Z,37.90
2019-04-25T07:41:14.063Z,38.20
2019-04-25T07:43:45.272Z,38.20
2019-04-25T07:46:17.025Z,38.30
2019-04-25T07:48:49.512Z,38.60
2019-04-25T07:51:23.741Z,38.60
2019-04-25T07:53:56.541Z,38.30
2019-04-25T07:56:29.414Z,37.80
2019-04-25T07:59:01.240Z,37.40
2019-04-25T08:01:37.275Z,37.20
2019-04-25T08:04:08.859Z,37.00
2019-04-25T08:06:41.793Z,36.90
2019-04-25T08:09:16.681Z,36.70
2019-04-25T08:11:49.906Z,36.30
2019-04-25T08:14:43.718Z,36.00
2019-04-25T08:17:18.046Z,35.90
2019-04-25T08:19:51.071Z,35.60
2019-04-25T08:22:24.197Z,35.50
2019-04-25T08:24:58.104Z,35.50
2019-04-25T08:27:33.469Z,35.50
2019-04-25T08:30:06.651Z,35.50
2019-04-25T08:32:39.850Z,35.40
2019-04-25T08:35:13.996Z,35.30
2019-04-25T08:37:47.920Z,35.20
2019-04-25T08:40:21.307Z,35.10
2019-04-25T08:42:53.926Z,35.10
2019-04-25T08:45:26.650Z,35.00
2019-04-25T08:47:59.321Z,35.00
2019-04-25T08:50:40.823Z,34.90
2019-04-25T08:53:13.685Z,34.90
2019-04-25T08:55:57.016Z,34.80
2019-04-25T08:58:48.467Z,34.70
2019-04-25T09:01:25.243Z,34.70
2019-04-25T09:04:04.693Z,34.60
2019-04-25T09:06:37.550Z,34.50
2019-04-25T09:09:11.334Z,34.50
2019-04-25T09:11:46.919Z,34.40
2019-04-25T09:14:18.692Z,34.50
2019-04-25T09:16:53.245Z,34.40
2019-04-25T09:19:26.470Z,34.30
2019-04-25T09:21:59.192Z,34.30
2019-04-25T09:24:30.719Z,34.10
2019-04-25T09:27:04.451Z,34.10
2019-04-25T09:29:37.168Z,34.00
2019-04-25T09:32:10.171Z,33.90
2019-04-25T09:34:44.701Z,33.90
2019-04-25T09:37:17.366Z,33.80
2019-04-25T09:40:04.311Z,33.80
2019-04-25T09:42:47.531Z,33.70
2019-04-25T09:45:27.013Z,33.60
2019-04-25T09:48:01.033Z,33.50
2019-04-25T09:50:35.657Z,33.30
2019-04-25T09:53:20.755Z,33.30
2019-04-25T09:55:56.391Z,33.40
2019-04-25T09:58:33.906Z,33.30
2019-04-25T10:01:11.953Z,33.20
2019-04-25T10:03:45.743Z,33.20
2019-04-25T10:06:23.277Z,33.10
2019-04-25T10:08:56.959Z,33.10
2019-04-25T10:11:29.817Z,33.10
2019-04-25T10:14:29.860Z,33.00
2019-04-25T10:17:03.876Z,33.00
2019-04-25T10:19:36.945Z,32.80
2019-04-25T10:22:10.507Z,32.70
2019-04-25T10:24:43.230Z,32.60
2019-04-25T10:27:16.410Z,32.50
2019-04-25T10:29:53.698Z,32.50
2019-04-25T10:32:24.490Z,32.40
2019-04-25T10:34:57.705Z,32.30
2019-04-25T10:37:31.398Z,32.20
2019-04-25T10:40:04.340Z,32.10
2019-04-25T10:42:38.919Z,32.00
2019-04-25T10:45:21.277Z,32.10
2019-04-25T10:47:46.770Z,32.00
2019-04-25T10:50:19.097Z,31.90
2019-04-25T10:52:50.740Z,31.80
2019-04-25T10:55:26.165Z,31.80
2019-04-25T10:57:59.797Z,31.80
2019-04-25T11:00:38.293Z,31.70
2019-04-25T11:03:26.429Z,31.70
2019-04-25T11:05:59.432Z,31.60
2019-04-25T11:08:31.903Z,31.60
2019-04-25T11:11:04.308Z,31.50
2019-04-25T11:13:37.179Z,31.40
2019-04-25T11:16:10.141Z,31.30
2019-04-25T11:18:46.350Z,31.20
2019-04-25T11:21:19.202Z,31.30
2019-04-25T11:23:54.019Z,31.30
2019-04-25T11:26:26.122Z,31.20
2019-04-25T11:28:58.608Z,31.20
2019-04-25T11:31:33.726Z,31.10
2019-04-25T11:34:07.199Z,31.10
2019-04-25T11:36:39.725Z,31.10
2019-04-25T11:39:31.029Z,31.10
2019-04-25T11:42:04.271Z,31.00
2019-04-25T11:44:37.052Z,31.00
2019-04-25T11:47:08.731Z,31.00
2019-04-25T11:49:43.114Z,30.90
2019-04-25T11:52:26.931Z,30.80
2019-04-25T11:54:50.408Z,30.70
2019-04-25T11:57:23.388Z,30.70
2019-04-25T11:59:56.627Z,30.70
2019-04-25T12:02:28.109Z,30.60
2019-04-25T12:05:00.634Z,30.60
2019-04-25T12:07:34.233Z,30.60
2019-04-25T12:10:09.637Z,30.50
2019-04-25T12:12:44.235Z,30.50
2019-04-25T12:15:16.300Z,30.50
2019-04-25T12:17:49.489Z,30.40
2019-04-25T12:20:22.055Z,30.40
2019-04-25T12:23:06.265Z,30.40
2019-04-25T12:25:28.856Z,30.30
2019-04-25T12:28:02.411Z,30.30
2019-04-25T12:30:39.967Z,30.30
2019-04-25T12:33:19.173Z,30.40
2019-04-25T12:35:43.828Z,30.30
2019-04-25T12:38:16.676Z,30.30
2019-04-25T12:40:48.248Z,30.30
2019-04-25T12:43:23.911Z,30.30
2019-04-25T12:45:59.268Z,30.30
2019-04-25T12:48:31.901Z,30.20
2019-04-25T12:51:05.005Z,30.10
2019-04-25T12:53:36.292Z,30.10
2019-04-25T12:56:09.938Z,30.00
2019-04-25T12:58:43.478Z,30.00
2019-04-25T13:01:17.585Z,30.00
2019-04-25T13:03:50.868Z,30.00
2019-04-25T13:06:23.876Z,29.90
2019-04-25T13:08:56.796Z,29.90
2019-04-25T13:11:29.624Z,29.90
2019-04-25T13:14:02.742Z,29.90
2019-04-25T13:16:35.757Z,29.90
2019-04-25T13:19:16.760Z,29.90
2019-04-25T13:21:43.309Z,29.80
2019-04-25T13:24:15.945Z,29.80
2019-04-25T13:26:50.197Z,29.80
2019-04-25T13:29:27.142Z,29.70
2019-04-25T13:32:07.618Z,29.70
2019-04-25T13:34:47.610Z,29.70
2019-04-25T13:37:20.386Z,29.70
2019-04-25T13:39:51.772Z,29.70
2019-04-25T13:42:24.968Z,29.70
2019-04-25T13:44:57.502Z,29.70
2019-04-25T13:47:30.331Z,29.70
2019-04-25T13:50:02.620Z,29.70
2019-04-25T13:52:37.121Z,29.70
2019-04-25T13:55:09.650Z,29.70
2019-04-25T13:57:45.833Z,29.70
2019-04-25T14:00:20.299Z,29.70
2019-04-25T14:02:53.226Z,29.70
2019-04-25T14:05:26.563Z,29.60
2019-04-25T14:07:59.538Z,29.60
2019-04-25T14:10:32.467Z,29.70
2019-04-25T14:13:07.501Z,29.60
2019-04-25T14:15:43.121Z,29.60
2019-04-25T14:18:32.987Z,29.60
2019-04-25T14:21:09.738Z,29.70
2019-04-25T14:23:44.261Z,29.70
2019-04-25T14:26:18.084Z,29.60
2019-04-25T14:28:50.578Z,29.60
2019-04-25T14:31:41.049Z,29.60
2019-04-25T14:33:58.291Z,29.60
2019-04-25T14:36:33.210Z,29.60
2019-04-25T14:39:06.818Z,29.60
2019-04-25T14:41:41.037Z,29.60
2019-04-25T14:44:14.010Z,29.50
2019-04-25T14:46:46.580Z,29.50
2019-04-25T14:49:18.209Z,29.50
2019-04-25T14:51:50.580Z,29.40
2019-04-25T14:54:42.697Z,29.40
2019-04-25T14:57:23.112Z,29.30
2019-04-25T14:59:56.960Z,29.30
2019-04-25T15:02:31.392Z,29.30
2019-04-25T15:05:04.961Z,29.30
2019-04-25T15:07:37.732Z,29.20
2019-04-25T15:10:11.223Z,29.30
2019-04-25T15:12:46.568Z,29.20
2019-04-25T15:15:18.999Z,29.20
2019-04-25T15:17:51.872Z,29.20
2019-04-25T15:20:24.829Z,29.20
2019-04-25T15:22:57.563Z,29.30
2019-04-25T15:25:30.117Z,29.20
2019-04-25T15:28:07.168Z,29.30
2019-04-25T15:30:40.669Z,29.30
2019-04-25T15:33:15.485Z,29.20
2019-04-25T15:35:49.550Z,29.30
2019-04-25T15:38:35.684Z,29.40
2019-04-25T15:41:12.878Z,29.40
2019-04-25T15:44:03.317Z,29.30
2019-04-25T15:46:37.397Z,29.30
2019-04-25T15:49:10.528Z,29.30
2019-04-25T15:51:43.094Z,29.30
2019-04-25T15:54:15.868Z,29.20
2019-04-25T15:56:48.406Z,29.20
2019-04-25T15:59:21.221Z,29.20
2019-04-25T16:01:53.143Z,29.10
2019-04-25T16:04:26.695Z,29.10
2019-04-25T16:06:59.937Z,29.10
2019-04-25T16:09:32.479Z,29.00
2019-04-25T16:12:05.217Z,29.10
2019-04-25T16:14:39.216Z,29.00
2019-04-25T16:17:12.941Z,29.00
2019-04-25T16:19:45.559Z,29.00
2019-04-25T16:22:18.335Z,29.00
2019-04-25T16:24:51.723Z,29.00
2019-04-25T16:27:24.888Z,29.00
2019-04-25T16:29:57.009Z,29.00
2019-04-25T16:32:30.822Z,28.90
2019-04-25T16:35:03.648Z,28.90
2019-04-25T16:37:36.879Z,28.90
2019-04-25T16:40:09.499Z,28.90
2019-04-25T16:42:41.917Z,28.90
2019-04-25T16:45:14.412Z,28.90
2019-04-25T16:47:47.217Z,28.80
2019-04-25T16:50:19.320Z,28.90
2019-04-25T16:52:51.583Z,28.90
2019-04-25T16:55:24.401Z,28.80
2019-04-25T16:57:56.740Z,28.80
2019-04-25T17:00:45.634Z,28.80
2019-04-25T17:03:19.245Z,28.80
2019-04-25T17:05:52.200Z,28.80
2019-04-25T17:08:25.542Z,28.80
2019-04-25T17:10:59.129Z,28.80
2019-04-25T17:13:33.726Z,28.80
2019-04-25T17:16:24.385Z,28.70
2019-04-25T17:19:01.214Z,28.70
2019-04-25T17:21:34.935Z,28.70
2019-04-25T17:24:07.680Z,28.70
2019-04-25T17:26:40.205Z,28.70
2019-04-25T17:29:13.982Z,28.70
2019-04-25T17:31:51.524Z,28.70
2019-04-25T17:34:29.493Z,28.70
2019-04-25T17:37:15.976Z,28.70
2019-04-25T17:39:49.865Z,28.70
2019-04-25T17:42:22.830Z,28.70
2019-04-25T17:44:55.442Z,28.70
2019-04-25T17:47:27.955Z,28.70
2019-04-25T17:50:00.409Z,28.60
2019-04-25T17:52:34.053Z,28.60
2019-04-25T17:55:07.333Z,28.60
2019-04-25T17:57:39.988Z,28.60
2019-04-25T18:00:12.874Z,28.50
2019-04-25T18:02:45.308Z,28.60
2019-04-25T18:05:17.765Z,28.60
2019-04-25T18:07:51.850Z,28.60
2019-04-25T18:10:25.013Z,28.60
2019-04-25T18:12:56.263Z,28.60
2019-04-25T18:15:29.992Z,28.50
2019-04-25T18:18:03.793Z,28.60
2019-04-25T18:20:38.854Z,28.60
2019-04-25T18:23:28.840Z,28.60
2019-04-25T18:26:06.006Z,28.50
2019-04-25T18:28:50.012Z,28.50
2019-04-25T18:31:23.289Z,28.50
2019-04-25T18:33:57.422Z,28.50
2019-04-25T18:36:35.023Z,28.50
2019-04-25T18:39:15.970Z,28.40
2019-04-25T18:41:53.021Z,28.40
2019-04-25T18:44:26.412Z,28.40
2019-04-25T18:46:59.335Z,28.40
2019-04-25T18:49:31.973Z,28.30
2019-04-25T18:52:08.616Z,28.30
2019-04-25T18:54:58.691Z,28.30
2019-04-25T18:57:37.413Z,28.30
2019-04-25T19:00:20.915Z,28.30
2019-04-25T19:03:07.352Z,28.30
2019-04-25T19:05:45.096Z,28.30
2019-04-25T19:08:17.587Z,28.30
2019-04-25T19:10:50.098Z,28.20
2019-04-25T19:13:23.565Z,28.20
2019-04-25T19:15:56.769Z,28.20
2019-04-25T19:18:29.084Z,28.20
2019-04-25T19:21:01.838Z,28.20
2019-04-25T19:23:55.137Z,28.20
2019-04-25T19:26:28.854Z,28.20
2019-04-25T19:29:02.194Z,28.20
2019-04-25T19:31:36.035Z,28.20
2019-04-25T19:34:09.315Z,28.10
2019-04-25T19:36:42.699Z,28.10
2019-04-25T19:39:15.992Z,28.10
2019-04-25T19:41:48.559Z,28.10
2019-04-25T19:44:25.344Z,28.10
2019-04-25T19:46:57.688Z,28.10
2019-04-25T19:49:30.623Z,28.10
2019-04-25T19:52:03.580Z,28.00
2019-04-25T19:54:36.597Z,28.10
2019-04-25T19:57:08.151Z,28.10
2019-04-25T19:59:40.807Z,28.10
2019-04-25T20:02:15.058Z,28.10
2019-04-25T20:04:49.489Z,28.10
2019-04-25T20:07:26.352Z,28.10
2019-04-25T20:10:15.349Z,28.20
2019-04-25T20:12:51.792Z,28.20
2019-04-25T20:15:24.664Z,28.20
2019-04-25T20:17:57.090Z,28.20
2019-04-25T20:20:29.484Z,28.20
2019-04-25T20:23:02.271Z,28.20
2019-04-25T20:25:34.786Z,28.20
2019-04-25T20:28:07.534Z,28.30
2019-04-25T20:30:40.500Z,28.30
2019-04-25T20:33:13.584Z,28.30
2019-04-25T20:35:47.537Z,28.30
2019-04-25T20:38:19.992Z,28.30
2019-04-25T20:40:53.848Z,28.30
2019-04-25T20:43:27.200Z,28.30
2019-04-25T20:46:00.267Z,28.30
2019-04-25T20:48:33.010Z,28.30
2019-04-25T20:51:05.864Z,28.20
2019-04-25T20:53:39.082Z,28.10
2019-04-25T20:56:11.972Z,28.20
2019-04-25T20:58:43.397Z,28.10
2019-04-25T21:01:16.089Z,28.20
2019-04-25T21:03:49.814Z,28.20
2019-04-25T21:06:30.780Z,28.20
2019-04-25T21:09:03.710Z,28.20
2019-04-25T21:11:38.047Z,28.20
2019-04-25T21:14:10.620Z,28.30
2019-04-25T21:16:54.222Z,28.30
2019-04-25T21:19:28.467Z,28.20
2019-04-25T21:22:01.148Z,28.10
2019-04-25T21:24:34.286Z,28.20
2019-04-25T21:27:06.976Z,28.10
2019-04-25T21:29:39.403Z,28.10
2019-04-25T21:32:11.888Z,28.20
2019-04-25T21:34:44.385Z,28.10
2019-04-25T21:37:17.190Z,28.20
2019-04-25T21:40:05.984Z,28.20
2019-04-25T21:42:42.929Z,28.20
2019-04-25T21:45:15.554Z,28.20
2019-04-25T21:47:48.469Z,28.10
2019-04-25T21:50:19.913Z,28.10
2019-04-25T21:52:53.123Z,28.10
2019-04-25T21:55:26.682Z,28.10
2019-04-25T21:58:00.076Z,28.10
2019-04-25T22:00:50.103Z,28.10
2019-04-25T22:03:25.768Z,28.10
2019-04-25T22:05:58.645Z,28.10
2019-04-25T22:08:31.501Z,28.10
2019-04-25T22:11:03.845Z,28.10
2019-04-25T22:13:36.360Z,28.10
2019-04-25T22:16:08.864Z,28.10
2019-04-25T22:18:41.755Z,28.10
2019-04-25T22:21:14.552Z,28.10
2019-04-25T22:23:46.292Z,28.10
2019-04-25T22:26:18.493Z,28.10
2019-04-25T22:28:51.796Z,28.10
2019-04-25T22:31:25.487Z,28.10
2019-04-25T22:34:02.790Z,28.10
2019-04-25T22:36:36.109Z,28.10
2019-04-25T22:39:12.917Z,28.10
2019-04-25T22:41:48.461Z,28.00
2019-04-25T22:44:22.458Z,28.10
2019-04-25T22:46:55.738Z,28.10
2019-04-25T22:49:28.304Z,28.10
2019-04-25T22:52:01.754Z,28.10
2019-04-25T22:54:35.496Z,28.10
2019-04-25T22:57:08.453Z,28.00
2019-04-25T22:59:41.519Z,28.00
2019-04-25T23:02:24.184Z,28.00
2019-04-25T23:05:09.183Z,28.00
2019-04-25T23:07:37.195Z,28.10
2019-04-25T23:10:10.661Z,28.10
2019-04-25T23:12:44.113Z,28.10
2019-04-25T23:15:16.738Z,28.10
2019-04-25T23:17:48.925Z,28.20
2019-04-25T23:20:22.154Z,28.20
2019-04-25T23:22:54.557Z,28.30
2019-04-25T23:25:28.306Z,28.30
2019-04-25T23:28:02.329Z,28.30
2019-04-25T23:30:37.989Z,28.40
2019-04-25T23:33:11.368Z,28.50
2019-04-25T23:35:45.321Z,28.60
2019-04-25T23:38:18.661Z,28.60
2019-04-25T23:40:51.466Z,28.70
2019-04-25T23:43:23.225Z,28.70
2019-04-25T23:45:55.738Z,28.80
2019-04-25T23:48:28.437Z,28.80
2019-04-25T23:51:00.826Z,28.80
2019-04-25T23:53:33.591Z,28.90
2019-04-25T23:56:06.787Z,28.90
2019-04-25T23:58:40.197Z,29.00
